Time,TemperatureF,DewpointF,PressureIn,WindDirection,WindDirectionDegrees,WindSpeedMPH,WindSpeedGustMPH,Humidity,HourlyPrecipIn,Conditions,Clouds,dailyrainin,SoftwareType,DateUTC
2013-11-27 00:01:00,38.6,37.6,29.76,South,171,2.0,10.0,96,0.08,,---,3.03,VWS V14.00,2013-11-27 05:01:00,
2013-11-27 00:06:00,38.5,37.5,29.76,SSE,159,10.0,11.0,96,0.09,,---,3.04,VWS V14.00,2013-11-27 05:06:00,
2013-11-27 00:11:00,38.2,37.2,29.76,WSW,250,4.0,10.0,96,0.05,,---,0.00,VWS V14.00,2013-11-27 05:11:00,
2013-11-27 00:16:00,38.0,36.7,29.75,SW,219,4.0,10.0,95,0.05,,---,0.00,VWS V14.00,2013-11-27 05:16:00,
2013-11-27 00:21:00,37.8,36.5,29.74,SSE,161,1.0,12.0,95,0.05,,---,0.00,VWS V14.00,2013-11-27 05:21:00,
2013-11-27 00:26:00,37.7,36.4,29.75,South,182,1.0,12.0,95,0.06,,---,0.01,VWS V14.00,2013-11-27 05:26:00,
2013-11-27 00:31:00,37.5,36.2,29.75,South,186,3.0,12.0,95,0.06,,---,0.01,VWS V14.00,2013-11-27 05:31:00,
2013-11-27 00:36:00,37.3,36.0,29.75,SW,229,3.0,12.0,95,0.06,,---,0.01,VWS V14.00,2013-11-27 05:36:00,
2013-11-27 00:41:00,37.1,35.8,29.74,SSE,167,5.0,12.0,95,0.04,,---,0.01,VWS V14.00,2013-11-27 05:41:00,
2013-11-27 00:46:00,37.0,35.7,29.74,West,279,5.0,16.0,95,0.04,,---,0.01,VWS V14.00,2013-11-27 05:46:00,
2013-11-27 00:51:00,36.7,35.1,29.74,WSW,248,5.0,16.0,94,0.04,,---,0.01,VWS V14.00,2013-11-27 05:51:00,
2013-11-27 00:56:00,36.6,35.0,29.74,South,185,4.0,16.0,94,0.05,,---,0.02,VWS V14.00,2013-11-27 05:56:00,
2013-11-27 01:01:00,36.4,34.8,29.74,NNW,336,4.0,16.0,94,0.05,,---,0.02,VWS V14.00,2013-11-27 06:01:00,
2013-11-27 01:06:00,36.1,34.5,29.75,SW,218,6.0,16.0,94,0.05,,---,0.02,VWS V14.00,2013-11-27 06:06:00,
2013-11-27 01:11:00,35.9,34.3,29.74,WSW,238,12.0,16.0,94,0.02,,---,0.02,VWS V14.00,2013-11-27 06:11:00,
2013-11-27 01:16:00,35.7,34.2,29.74,SW,224,3.0,16.0,94,0.02,,---,0.02,VWS V14.00,2013-11-27 06:16:00,
2013-11-27 01:21:00,35.4,33.8,29.74,SW,225,10.0,16.0,94,0.02,,---,0.02,VWS V14.00,2013-11-27 06:21:00,
2013-11-27 01:26:00,35.2,33.7,29.74,WSW,257,14.0,16.0,94,0.02,,---,0.02,VWS V14.00,2013-11-27 06:26:00,
2013-11-27 01:31:00,35.0,33.5,29.74,SSW,203,9.0,16.0,94,0.02,,---,0.02,VWS V14.00,2013-11-27 06:31:00,
2013-11-27 01:36:00,34.8,33.2,29.74,West,261,9.0,16.0,94,0.02,,---,0.02,VWS V14.00,2013-11-27 06:36:00,
2013-11-27 01:41:00,34.7,33.2,29.74,WSW,256,6.0,15.0,94,0.01,,---,0.02,VWS V14.00,2013-11-27 06:41:00,
2013-11-27 01:46:00,34.6,32.8,29.74,SSW,195,13.0,17.0,93,0.01,,---,0.02,VWS V14.00,2013-11-27 06:46:00,
2013-11-27 01:51:00,34.5,32.7,29.75,WSW,257,3.0,17.0,93,0.01,,---,0.02,VWS V14.00,2013-11-27 06:51:00,
2013-11-27 01:56:00,34.4,32.6,29.75,SSE,166,10.0,17.0,93,0.01,,---,0.02,VWS V14.00,2013-11-27 06:56:00,
2013-11-27 02:01:00,34.4,32.6,29.75,South,191,4.0,17.0,93,0.01,,---,0.02,VWS V14.00,2013-11-27 07:01:00,
2013-11-27 02:06:00,34.4,32.6,29.75,SSE,148,2.0,17.0,93,0.01,,---,0.02,VWS V14.00,2013-11-27 07:06:00,
2013-11-27 02:11:00,34.2,32.4,29.75,South,180,2.0,13.0,93,0.00,,---,0.02,VWS V14.00,2013-11-27 07:11:00,
2013-11-27 02:16:00,34.1,32.3,29.75,SSE,151,6.0,15.0,93,0.01,,---,0.03,VWS V14.00,2013-11-27 07:16:00,
2013-11-27 02:21:00,33.9,32.4,29.75,SE,125,0.0,15.0,94,0.01,,---,0.03,VWS V14.00,2013-11-27 07:21:00,
2013-11-27 02:26:00,33.7,32.2,29.75,SSE,150,7.0,15.0,94,0.01,,---,0.03,VWS V14.00,2013-11-27 07:26:00,
2013-11-27 02:31:00,33.5,32.0,29.75,SSE,164,2.0,15.0,94,0.01,,---,0.03,VWS V14.00,2013-11-27 07:31:00,
2013-11-27 02:36:00,33.4,31.6,29.76,SSE,168,3.0,15.0,93,0.01,,---,0.03,VWS V14.00,2013-11-27 07:36:00,
2013-11-27 02:41:00,33.2,31.7,29.76,South,182,3.0,12.0,94,0.01,,---,0.03,VWS V14.00,2013-11-27 07:41:00,
2013-11-27 02:46:00,33.1,31.6,29.76,SSE,166,13.0,14.0,94,0.01,,---,0.03,VWS V14.00,2013-11-27 07:46:00,
2013-11-27 02:51:00,32.9,31.4,29.75,South,171,2.0,14.0,94,0.01,,---,0.03,VWS V14.00,2013-11-27 07:51:00,
2013-11-27 02:56:00,32.8,31.3,29.75,South,185,4.0,14.0,94,0.01,,---,0.03,VWS V14.00,2013-11-27 07:56:00,
2013-11-27 03:01:00,32.8,31.3,29.75,SSE,161,5.0,14.0,94,0.01,,---,0.03,VWS V14.00,2013-11-27 08:01:00,
2013-11-27 03:06:00,32.6,31.1,29.75,South,173,2.0,14.0,94,0.01,,---,0.03,VWS V14.00,2013-11-27 08:06:00,
2013-11-27 03:11:00,32.5,31.0,29.75,South,189,5.0,11.0,94,0.01,,---,0.03,VWS V14.00,2013-11-27 08:11:00,
2013-11-27 03:16:00,32.4,30.6,29.75,SSE,150,0.0,15.0,93,0.01,,---,0.03,VWS V14.00,2013-11-27 08:16:00,
2013-11-27 03:21:00,32.3,30.5,29.75,SSE,157,5.0,15.0,93,0.01,,---,0.03,VWS V14.00,2013-11-27 08:21:00,
2013-11-27 03:26:00,32.2,30.4,29.75,ESE,117,0.0,15.0,93,0.01,,---,0.03,VWS V14.00,2013-11-27 08:26:00,
2013-11-27 03:31:00,32.1,30.3,29.76,SSW,205,6.0,15.0,93,0.01,,---,0.03,VWS V14.00,2013-11-27 08:31:00,
2013-11-27 03:36:00,32.0,30.2,29.76,SSE,157,3.0,15.0,93,0.01,,---,0.03,VWS V14.00,2013-11-27 08:36:00,
2013-11-27 03:41:00,31.9,30.1,29.75,SE,140,9.0,18.0,93,0.00,,---,0.03,VWS V14.00,2013-11-27 08:41:00,
2013-11-27 03:46:00,31.7,29.9,29.76,SSE,163,6.0,18.0,93,0.00,,---,0.03,VWS V14.00,2013-11-27 08:46:00,
2013-11-27 03:51:00,31.6,29.5,29.76,SSW,211,6.0,18.0,92,0.00,,---,0.03,VWS V14.00,2013-11-27 08:51:00,
2013-11-27 03:56:00,31.5,29.5,29.76,ESE,113,5.0,18.0,92,0.00,,---,0.03,VWS V14.00,2013-11-27 08:56:00,
2013-11-27 04:01:00,31.4,29.4,29.76,SSW,205,0.0,18.0,92,0.00,,---,0.03,VWS V14.00,2013-11-27 09:01:00,
2013-11-27 04:06:00,31.4,29.6,29.77,South,185,10.0,18.0,93,0.00,,---,0.03,VWS V14.00,2013-11-27 09:06:00,
2013-11-27 04:11:00,31.2,29.4,29.77,ESE,121,5.0,7.0,93,0.00,,---,0.03,VWS V14.00,2013-11-27 09:11:00,
2013-11-27 04:16:00,31.1,29.3,29.77,SE,145,6.0,7.0,93,0.00,,---,0.03,VWS V14.00,2013-11-27 09:16:00,
2013-11-27 04:21:00,30.9,29.1,29.77,SSE,165,3.0,11.0,93,0.00,,---,0.03,VWS V14.00,2013-11-27 09:21:00,
2013-11-27 04:26:00,30.8,29.0,29.78,SSE,157,8.0,11.0,93,0.00,,---,0.03,VWS V14.00,2013-11-27 09:26:00,
2013-11-27 04:31:00,30.6,28.8,29.77,SSE,148,3.0,11.0,93,0.00,,---,0.03,VWS V14.00,2013-11-27 09:31:00,
2013-11-27 04:36:00,30.6,28.8,29.78,SSE,165,4.0,11.0,93,0.00,,---,0.03,VWS V14.00,2013-11-27 09:36:00,
2013-11-27 04:41:00,30.4,28.6,29.77,SSE,160,6.0,13.0,93,0.00,,---,0.03,VWS V14.00,2013-11-27 09:41:00,
2013-11-27 04:46:00,30.3,28.5,29.78,SSW,205,4.0,13.0,93,0.00,,---,0.03,VWS V14.00,2013-11-27 09:46:00,
2013-11-27 04:51:00,30.2,28.4,29.78,SSE,163,1.0,13.0,93,0.00,,---,0.03,VWS V14.00,2013-11-27 09:51:00,
2013-11-27 04:56:00,30.1,28.3,29.79,SSE,148,5.0,13.0,93,0.00,,---,0.03,VWS V14.00,2013-11-27 09:56:00,
2013-11-27 05:01:00,30.1,28.3,29.78,ENE,61,0.0,13.0,93,0.00,,---,0.03,VWS V14.00,2013-11-27 10:01:00,
2013-11-27 05:06:00,30.0,28.2,29.79,SE,126,3.0,13.0,93,0.00,,---,0.03,VWS V14.00,2013-11-27 10:06:00,
2013-11-27 05:11:00,30.0,28.2,29.80,SSE,155,0.0,5.0,93,0.00,,---,0.03,VWS V14.00,2013-11-27 10:11:00,
2013-11-27 05:16:00,29.9,28.1,29.80,East,84,0.0,5.0,93,0.00,,---,0.03,VWS V14.00,2013-11-27 10:16:00,
2013-11-27 05:21:00,29.8,28.0,29.80,SSE,164,2.0,9.0,93,0.00,,---,0.03,VWS V14.00,2013-11-27 10:21:00,
2013-11-27 05:26:00,29.6,27.8,29.80,SSE,157,5.0,11.0,93,0.00,,---,0.03,VWS V14.00,2013-11-27 10:26:00,
2013-11-27 05:31:00,29.4,27.9,29.80,SE,140,3.0,11.0,94,0.00,,---,0.03,VWS V14.00,2013-11-27 10:31:00,
2013-11-27 05:36:00,29.4,27.9,29.81,ESE,105,3.0,11.0,94,0.00,,---,0.03,VWS V14.00,2013-11-27 10:36:00,
2013-11-27 05:41:00,29.3,27.8,29.80,South,173,2.0,6.0,94,0.00,,---,0.03,VWS V14.00,2013-11-27 10:41:00,
2013-11-27 05:46:00,29.1,27.6,29.81,South,171,1.0,6.0,94,0.00,,---,0.03,VWS V14.00,2013-11-27 10:46:00,
2013-11-27 05:51:00,29.1,27.6,29.81,SSE,161,4.0,6.0,94,0.00,,---,0.03,VWS V14.00,2013-11-27 10:51:00,
2013-11-27 05:56:00,29.0,27.5,29.81,SSE,155,2.0,6.0,94,0.00,,---,0.03,VWS V14.00,2013-11-27 10:56:00,
2013-11-27 06:01:00,29.0,27.2,29.81,ESE,110,0.0,10.0,93,0.00,,---,0.03,VWS V14.00,2013-11-27 11:01:00,
2013-11-27 06:06:00,28.9,27.1,29.81,South,183,0.0,10.0,93,0.00,,---,0.03,VWS V14.00,2013-11-27 11:06:00,
2013-11-27 06:11:00,28.9,27.1,29.81,SSE,157,2.0,5.0,93,0.00,,---,0.03,VWS V14.00,2013-11-27 11:11:00,
2013-11-27 06:16:00,28.9,27.1,29.81,SSE,165,2.0,5.0,93,0.00,,---,0.03,VWS V14.00,2013-11-27 11:16:00,
2013-11-27 06:21:00,28.8,27.0,29.81,SSE,168,2.0,5.0,93,0.00,,---,0.03,VWS V14.00,2013-11-27 11:21:00,
2013-11-27 06:26:00,28.8,27.0,29.82,SSE,162,2.0,5.0,93,0.00,,---,0.03,VWS V14.00,2013-11-27 11:26:00,
2013-11-27 06:31:00,28.7,26.9,29.82,SSE,156,2.0,9.0,93,0.00,,---,0.03,VWS V14.00,2013-11-27 11:31:00,
2013-11-27 06:36:00,28.7,26.9,29.82,SSE,147,2.0,9.0,93,0.00,,---,0.03,VWS V14.00,2013-11-27 11:36:00,
2013-11-27 06:41:00,28.6,26.8,29.82,ENE,77,2.0,6.0,93,0.00,,---,0.03,VWS V14.00,2013-11-27 11:41:00,
2013-11-27 06:46:00,28.6,26.8,29.83,South,179,3.0,6.0,93,0.00,,---,0.03,VWS V14.00,2013-11-27 11:46:00,
2013-11-27 06:51:00,28.5,26.7,29.83,South,182,6.0,7.0,93,0.00,,---,0.03,VWS V14.00,2013-11-27 11:51:00,
2013-11-27 06:56:00,28.5,26.7,29.84,ESE,119,0.0,8.0,93,0.00,,---,0.03,VWS V14.00,2013-11-27 11:56:00,
2013-11-27 07:01:00,28.4,26.6,29.84,South,191,6.0,8.0,93,0.00,,---,0.03,VWS V14.00,2013-11-27 12:01:00,
2013-11-27 07:06:00,28.4,26.6,29.85,South,179,0.0,8.0,93,0.00,,---,0.03,VWS V14.00,2013-11-27 12:06:00,
2013-11-27 07:11:00,28.4,26.9,29.85,SSW,208,0.0,1.0,94,0.00,,---,0.03,VWS V14.00,2013-11-27 12:11:00,
2013-11-27 07:16:00,28.3,26.8,29.86,South,179,2.0,4.0,94,0.00,,---,0.03,VWS V14.00,2013-11-27 12:16:00,
2013-11-27 07:21:00,28.3,26.8,29.86,SSE,157,0.0,6.0,94,0.00,,---,0.03,VWS V14.00,2013-11-27 12:21:00,
2013-11-27 07:26:00,28.2,26.7,29.86,SSE,159,5.0,7.0,94,0.00,,---,0.03,VWS V14.00,2013-11-27 12:26:00,
2013-11-27 07:31:00,28.1,26.6,29.86,SSE,163,0.0,7.0,94,0.00,,---,0.03,VWS V14.00,2013-11-27 12:31:00,
2013-11-27 07:36:00,28.1,26.6,29.87,SSW,202,4.0,7.0,94,0.00,,---,0.03,VWS V14.00,2013-11-27 12:36:00,
2013-11-27 07:41:00,28.1,26.6,29.87,SSE,159,0.0,5.0,94,0.00,,---,0.03,VWS V14.00,2013-11-27 12:41:00,
2013-11-27 07:46:00,28.1,26.6,29.88,SE,138,0.0,5.0,94,0.00,,---,0.03,VWS V14.00,2013-11-27 12:46:00,
2013-11-27 07:51:00,27.9,26.4,29.88,SSE,164,2.0,6.0,94,0.00,,---,0.03,VWS V14.00,2013-11-27 12:51:00,
2013-11-27 07:56:00,27.8,26.3,29.88,SSE,161,1.0,6.0,94,0.00,,---,0.03,VWS V14.00,2013-11-27 12:56:00,
2013-11-27 08:01:00,27.8,26.3,29.88,South,188,1.0,7.0,94,0.00,,---,0.03,VWS V14.00,2013-11-27 13:01:00,
2013-11-27 08:06:00,27.7,26.2,29.88,South,188,1.0,7.0,94,0.00,,---,0.03,VWS V14.00,2013-11-27 13:06:00,
2013-11-27 08:11:00,27.6,26.1,29.89,SSE,161,0.0,6.0,94,0.00,,---,0.03,VWS V14.00,2013-11-27 13:11:00,
2013-11-27 08:16:00,27.6,26.1,29.89,SSE,162,0.0,6.0,94,0.00,,---,0.03,VWS V14.00,2013-11-27 13:16:00,
2013-11-27 08:21:00,27.6,26.1,29.89,South,176,3.0,6.0,94,0.00,,---,0.03,VWS V14.00,2013-11-27 13:21:00,
2013-11-27 08:26:00,27.5,26.0,29.89,South,188,0.0,6.0,94,0.00,,---,0.03,VWS V14.00,2013-11-27 13:26:00,
2013-11-27 08:31:00,27.5,26.0,29.90,SE,142,2.0,6.0,94,0.00,,---,0.03,VWS V14.00,2013-11-27 13:31:00,
2013-11-27 08:36:00,27.4,25.9,29.90,SE,138,3.0,6.0,94,0.00,,---,0.03,VWS V14.00,2013-11-27 13:36:00,
2013-11-27 08:41:00,27.5,26.0,29.90,SSE,153,3.0,4.0,94,0.00,,---,0.03,VWS V14.00,2013-11-27 13:41:00,
2013-11-27 08:46:00,27.4,25.9,29.90,SSE,151,0.0,6.0,94,0.00,,---,0.03,VWS V14.00,2013-11-27 13:46:00,
2013-11-27 08:51:00,27.3,25.8,29.90,SSE,159,0.0,6.0,94,0.00,,---,0.03,VWS V14.00,2013-11-27 13:51:00,
2013-11-27 08:56:00,27.3,25.8,29.91,SSE,167,1.0,7.0,94,0.00,,---,0.03,VWS V14.00,2013-11-27 13:56:00,
2013-11-27 09:01:00,27.3,25.8,29.90,SSE,168,0.0,7.0,94,0.00,,---,0.03,VWS V14.00,2013-11-27 14:01:00,
2013-11-27 09:06:00,27.2,25.7,29.90,South,173,5.0,7.0,94,0.00,,---,0.03,VWS V14.00,2013-11-27 14:06:00,
2013-11-27 09:11:00,27.2,25.7,29.92,SSW,195,1.0,4.0,94,0.00,,---,0.03,VWS V14.00,2013-11-27 14:11:00,
2013-11-27 09:16:00,27.2,25.7,29.92,SSE,155,0.0,5.0,94,0.00,,---,0.03,VWS V14.00,2013-11-27 14:16:00,
2013-11-27 09:21:00,27.2,25.7,29.92,South,175,3.0,5.0,94,0.00,,---,0.03,VWS V14.00,2013-11-27 14:21:00,
2013-11-27 09:26:00,27.1,25.6,29.92,WSW,244,2.0,5.0,94,0.00,,---,0.03,VWS V14.00,2013-11-27 14:26:00,
2013-11-27 09:31:00,27.1,25.6,29.92,SSW,206,1.0,5.0,94,0.00,,---,0.03,VWS V14.00,2013-11-27 14:31:00,
2013-11-27 09:36:00,27.0,25.5,29.93,SSE,158,0.0,6.0,94,0.00,,---,0.03,VWS V14.00,2013-11-27 14:36:00,
2013-11-27 09:41:00,27.0,25.5,29.93,SSE,160,0.0,3.0,94,0.00,,---,0.03,VWS V14.00,2013-11-27 14:41:00,
2013-11-27 09:46:00,27.1,25.6,29.93,SSW,196,0.0,5.0,94,0.00,,---,0.03,VWS V14.00,2013-11-27 14:46:00,
2013-11-27 09:51:00,27.0,25.5,29.93,SSE,157,0.0,5.0,94,0.00,,---,0.03,VWS V14.00,2013-11-27 14:51:00,
2013-11-27 09:56:00,27.0,25.5,29.93,South,176,4.0,7.0,94,0.00,,---,0.03,VWS V14.00,2013-11-27 14:56:00,
2013-11-27 10:01:00,26.9,25.7,29.93,South,173,5.0,7.0,95,0.00,,---,0.03,VWS V14.00,2013-11-27 15:01:00,
2013-11-27 10:06:00,26.9,25.4,29.94,South,173,3.0,7.0,94,0.00,,---,0.03,VWS V14.00,2013-11-27 15:06:00,
2013-11-27 10:11:00,26.9,25.4,29.95,ESE,108,0.0,4.0,94,0.00,,---,0.03,VWS V14.00,2013-11-27 15:11:00,
2013-11-27 10:16:00,26.9,25.4,29.95,SSE,157,0.0,6.0,94,0.00,,---,0.03,VWS V14.00,2013-11-27 15:16:00,
2013-11-27 10:21:00,27.1,25.6,29.95,South,178,1.0,6.0,94,0.00,,---,0.03,VWS V14.00,2013-11-27 15:21:00,
2013-11-27 10:26:00,27.1,25.6,29.96,South,181,2.0,6.0,94,0.00,,---,0.03,VWS V14.00,2013-11-27 15:26:00,
2013-11-27 10:31:00,27.1,25.6,29.96,South,178,1.0,6.0,94,0.00,,---,0.03,VWS V14.00,2013-11-27 15:31:00,
2013-11-27 10:36:00,27.1,25.6,29.96,SSE,159,7.0,10.0,94,0.00,,---,0.03,VWS V14.00,2013-11-27 15:36:00,
2013-11-27 10:41:00,27.0,25.5,29.96,South,187,3.0,7.0,94,0.00,,---,0.03,VWS V14.00,2013-11-27 15:41:00,
2013-11-27 10:46:00,27.0,25.5,29.96,SSE,168,4.0,7.0,94,0.00,,---,0.03,VWS V14.00,2013-11-27 15:46:00,
2013-11-27 10:51:00,27.2,25.7,29.96,South,187,2.0,7.0,94,0.00,,---,0.03,VWS V14.00,2013-11-27 15:51:00,
2013-11-27 10:56:00,27.6,26.1,29.95,SSE,161,5.0,7.0,94,0.00,,---,0.03,VWS V14.00,2013-11-27 15:56:00,
2013-11-27 11:01:00,27.9,26.1,29.95,SSE,165,0.0,7.0,93,0.00,,---,0.03,VWS V14.00,2013-11-27 16:01:00,
2013-11-27 11:06:00,28.0,26.2,29.95,SSE,164,0.0,7.0,93,0.00,,---,0.03,VWS V14.00,2013-11-27 16:06:00,
2013-11-27 11:11:00,28.1,26.1,29.96,SSE,153,4.0,6.0,92,0.00,,---,0.03,VWS V14.00,2013-11-27 16:11:00,
2013-11-27 11:16:00,28.0,25.7,29.96,SSE,165,1.0,6.0,91,0.00,,---,0.03,VWS V14.00,2013-11-27 16:16:00,
2013-11-27 11:21:00,27.9,25.6,29.97,SSE,165,2.0,6.0,91,0.00,,---,0.03,VWS V14.00,2013-11-27 16:21:00,
2013-11-27 11:26:00,27.9,25.9,29.97,ESE,102,0.0,6.0,92,0.00,,---,0.03,VWS V14.00,2013-11-27 16:26:00,
2013-11-27 11:31:00,27.9,25.9,29.97,SE,136,3.0,6.0,92,0.00,,---,0.03,VWS V14.00,2013-11-27 16:31:00,
2013-11-27 11:36:00,27.8,25.8,29.96,East,90,3.0,6.0,92,0.00,,---,0.03,VWS V14.00,2013-11-27 16:36:00,
2013-11-27 11:41:00,27.7,25.7,29.97,South,175,3.0,5.0,92,0.00,,---,0.03,VWS V14.00,2013-11-27 16:41:00,
2013-11-27 11:46:00,27.6,25.3,29.96,SE,135,2.0,5.0,91,0.00,,---,0.03,VWS V14.00,2013-11-27 16:46:00,
2013-11-27 11:51:00,27.6,25.6,29.96,SSE,150,0.0,6.0,92,0.00,,---,0.03,VWS V14.00,2013-11-27 16:51:00,
2013-11-27 11:56:00,27.5,25.2,29.97,SSE,164,2.0,7.0,91,0.00,,---,0.03,VWS V14.00,2013-11-27 16:56:00,
2013-11-27 12:01:00,27.6,25.1,29.97,South,176,4.0,7.0,90,0.00,,---,0.03,VWS V14.00,2013-11-27 17:01:00,
2013-11-27 12:06:00,27.6,25.1,29.97,SSE,162,1.0,7.0,90,0.00,,---,0.03,VWS V14.00,2013-11-27 17:06:00,
2013-11-27 12:11:00,27.6,24.8,29.98,SSE,162,1.0,7.0,89,0.00,,---,0.03,VWS V14.00,2013-11-27 17:11:00,
2013-11-27 12:16:00,27.6,24.8,29.98,South,175,3.0,10.0,89,0.00,,---,0.03,VWS V14.00,2013-11-27 17:16:00,
2013-11-27 12:21:00,27.6,24.8,29.98,South,171,1.0,10.0,89,0.00,,---,0.03,VWS V14.00,2013-11-27 17:21:00,
2013-11-27 12:26:00,27.6,24.8,29.98,SE,133,3.0,10.0,89,0.00,,---,0.03,VWS V14.00,2013-11-27 17:26:00,
2013-11-27 12:31:00,27.6,24.8,29.98,East,92,4.0,10.0,89,0.00,,---,0.03,VWS V14.00,2013-11-27 17:31:00,
2013-11-27 12:36:00,27.5,24.4,29.97,SSE,167,2.0,10.0,88,0.00,,---,0.03,VWS V14.00,2013-11-27 17:36:00,
2013-11-27 12:41:00,27.6,24.5,29.98,South,169,0.0,5.0,88,0.00,,---,0.03,VWS V14.00,2013-11-27 17:41:00,
2013-11-27 12:46:00,27.6,24.5,29.97,SE,146,1.0,5.0,88,0.00,,---,0.03,VWS V14.00,2013-11-27 17:46:00,
2013-11-27 12:51:00,27.5,24.1,29.98,ESE,111,0.0,5.0,87,0.00,,---,0.03,VWS V14.00,2013-11-27 17:51:00,
2013-11-27 12:56:00,27.6,24.2,29.98,SE,125,3.0,6.0,87,0.00,,---,0.03,VWS V14.00,2013-11-27 17:56:00,
2013-11-27 13:01:00,27.7,24.1,29.98,SE,137,2.0,6.0,86,0.00,,---,0.03,VWS V14.00,2013-11-27 18:01:00,
2013-11-27 13:06:00,27.7,24.1,29.98,East,84,3.0,10.0,86,0.00,,---,0.03,VWS V14.00,2013-11-27 18:06:00,
2013-11-27 13:11:00,27.6,24.0,29.99,East,98,0.0,3.0,86,0.00,,---,0.03,VWS V14.00,2013-11-27 18:11:00,
2013-11-27 13:16:00,27.7,24.1,29.99,SE,146,0.0,5.0,86,0.00,,---,0.03,VWS V14.00,2013-11-27 18:16:00,
2013-11-27 13:21:00,27.8,23.9,30.00,SSE,156,6.0,8.0,85,0.00,,---,0.03,VWS V14.00,2013-11-27 18:21:00,
2013-11-27 13:26:00,27.8,23.6,30.00,East,96,0.0,8.0,84,0.00,,---,0.03,VWS V14.00,2013-11-27 18:26:00,
2013-11-27 13:31:00,27.8,23.3,30.00,ESE,119,4.0,8.0,83,0.00,,---,0.03,VWS V14.00,2013-11-27 18:31:00,
2013-11-27 13:36:00,27.8,23.3,30.00,South,170,2.0,8.0,83,0.00,,---,0.03,VWS V14.00,2013-11-27 18:36:00,
2013-11-27 13:41:00,27.6,22.8,30.00,South,178,0.0,6.0,82,0.00,,---,0.03,VWS V14.00,2013-11-27 18:41:00,
2013-11-27 13:46:00,27.5,22.7,30.00,SSE,150,0.0,8.0,82,0.00,,---,0.03,VWS V14.00,2013-11-27 18:46:00,
2013-11-27 13:51:00,27.3,22.5,30.01,SSE,157,5.0,8.0,82,0.00,,---,0.03,VWS V14.00,2013-11-27 18:51:00,
2013-11-27 13:56:00,27.1,22.9,30.02,ESE,103,1.0,8.0,84,0.00,,---,0.03,VWS V14.00,2013-11-27 18:56:00,
2013-11-27 14:01:00,27.0,23.1,30.02,SSE,167,0.0,8.0,85,0.00,,---,0.03,VWS V14.00,2013-11-27 19:01:00,
2013-11-27 14:06:00,26.9,23.0,30.02,East,80,0.0,8.0,85,0.00,,---,0.03,VWS V14.00,2013-11-27 19:06:00,
2013-11-27 14:11:00,26.8,23.2,30.03,SSE,165,5.0,7.0,86,0.00,,---,0.03,VWS V14.00,2013-11-27 19:11:00,
2013-11-27 14:16:00,26.7,23.1,30.03,South,186,3.0,7.0,86,0.00,,---,0.03,VWS V14.00,2013-11-27 19:16:00,
2013-11-27 14:21:00,26.7,23.4,30.04,SSE,158,3.0,7.0,87,0.00,,---,0.03,VWS V14.00,2013-11-27 19:21:00,
2013-11-27 14:26:00,26.6,23.3,30.04,SE,141,1.0,7.0,87,0.00,,---,0.03,VWS V14.00,2013-11-27 19:26:00,
2013-11-27 14:31:00,26.5,23.4,30.04,SSE,147,5.0,7.0,88,0.00,,---,0.03,VWS V14.00,2013-11-27 19:31:00,
2013-11-27 14:36:00,26.6,23.5,30.04,SSE,149,0.0,7.0,88,0.00,,---,0.03,VWS V14.00,2013-11-27 19:36:00,
2013-11-27 14:41:00,26.5,23.2,30.05,ESE,115,0.0,4.0,87,0.00,,---,0.03,VWS V14.00,2013-11-27 19:41:00,
2013-11-27 14:46:00,26.4,23.1,30.06,East,94,3.0,4.0,87,0.00,,---,0.03,VWS V14.00,2013-11-27 19:46:00,
2013-11-27 14:51:00,26.3,22.7,30.06,SSE,157,1.0,5.0,86,0.00,,---,0.03,VWS V14.00,2013-11-27 19:51:00,
2013-11-27 14:56:00,26.3,22.7,30.06,SSE,159,2.0,5.0,86,0.00,,---,0.03,VWS V14.00,2013-11-27 19:56:00,
2013-11-27 15:01:00,26.3,22.4,30.06,SSE,159,2.0,5.0,85,0.00,,---,0.03,VWS V14.00,2013-11-27 20:01:00,
2013-11-27 15:06:00,26.2,22.3,30.07,ESE,120,0.0,5.0,85,0.00,,---,0.03,VWS V14.00,2013-11-27 20:06:00,
2013-11-27 15:11:00,26.2,22.0,30.08,ENE,78,1.0,4.0,84,0.00,,---,0.03,VWS V14.00,2013-11-27 20:11:00,
2013-11-27 15:16:00,26.2,22.3,30.08,ENE,74,0.0,4.0,85,0.00,,---,0.03,VWS V14.00,2013-11-27 20:16:00,
2013-11-27 15:21:00,26.2,22.0,30.08,SSE,157,0.0,4.0,84,0.00,,---,0.03,VWS V14.00,2013-11-27 20:21:00,
2013-11-27 15:26:00,26.0,21.6,30.09,South,175,0.0,4.0,83,0.00,,---,0.03,VWS V14.00,2013-11-27 20:26:00,
2013-11-27 15:31:00,26.0,21.8,30.09,South,175,0.0,4.0,84,0.00,,---,0.03,VWS V14.00,2013-11-27 20:31:00,
2013-11-27 15:36:00,25.9,21.7,30.09,SE,126,3.0,4.0,84,0.00,,---,0.03,VWS V14.00,2013-11-27 20:36:00,
2013-11-27 15:41:00,25.8,21.6,30.10,SSE,152,0.0,5.0,84,0.00,,---,0.03,VWS V14.00,2013-11-27 20:41:00,
2013-11-27 15:46:00,25.7,21.8,30.10,SSE,160,2.0,5.0,85,0.00,,---,0.03,VWS V14.00,2013-11-27 20:46:00,
2013-11-27 15:51:00,25.7,22.4,30.10,SSE,164,1.0,5.0,87,0.00,,---,0.03,VWS V14.00,2013-11-27 20:51:00,
2013-11-27 15:56:00,25.6,22.5,30.10,NE,54,1.0,5.0,88,0.00,,---,0.03,VWS V14.00,2013-11-27 20:56:00,
2013-11-27 16:01:00,25.5,22.5,30.11,SSE,160,4.0,5.0,88,0.00,,---,0.03,VWS V14.00,2013-11-27 21:01:00,
2013-11-27 16:06:00,25.4,22.6,30.11,SE,144,1.0,7.0,89,0.00,,---,0.03,VWS V14.00,2013-11-27 21:06:00,
2013-11-27 16:11:00,25.3,22.5,30.12,SE,141,5.0,7.0,89,0.00,,---,0.03,VWS V14.00,2013-11-27 21:11:00,
2013-11-27 16:16:00,25.2,22.4,30.13,East,82,0.0,7.0,89,0.00,,---,0.03,VWS V14.00,2013-11-27 21:16:00,
2013-11-27 16:21:00,25.1,22.6,30.13,South,173,0.0,7.0,90,0.00,,---,0.03,VWS V14.00,2013-11-27 21:21:00,
2013-11-27 16:26:00,25.1,22.6,30.13,South,174,1.0,7.0,90,0.00,,---,0.03,VWS V14.00,2013-11-27 21:26:00,
2013-11-27 16:31:00,25.0,22.5,30.14,South,172,0.0,7.0,90,0.00,,---,0.03,VWS V14.00,2013-11-27 21:31:00,
2013-11-27 16:36:00,25.0,22.5,30.14,SSE,162,3.0,7.0,90,0.00,,---,0.03,VWS V14.00,2013-11-27 21:36:00,
2013-11-27 16:41:00,24.9,22.6,30.14,SSE,161,0.0,2.0,91,0.00,,---,0.03,VWS V14.00,2013-11-27 21:41:00,
2013-11-27 16:46:00,24.8,22.3,30.14,SSE,152,0.0,5.0,90,0.00,,---,0.03,VWS V14.00,2013-11-27 21:46:00,
2013-11-27 16:51:00,24.7,22.2,30.15,SE,136,0.0,5.0,90,0.00,,---,0.03,VWS V14.00,2013-11-27 21:51:00,
2013-11-27 16:56:00,24.5,22.0,30.15,SSE,152,2.0,6.0,90,0.00,,---,0.03,VWS V14.00,2013-11-27 21:56:00,
2013-11-27 17:01:00,24.3,21.8,30.16,SSE,161,10.0,12.0,90,0.00,,---,0.03,VWS V14.00,2013-11-27 22:01:00,
2013-11-27 17:06:00,24.1,21.3,30.15,SE,145,2.0,12.0,89,0.00,,---,0.03,VWS V14.00,2013-11-27 22:06:00,
2013-11-27 17:11:00,24.0,21.5,30.17,SE,132,0.0,3.0,90,0.00,,---,0.03,VWS V14.00,2013-11-27 22:11:00,
2013-11-27 17:16:00,24.0,21.5,30.17,East,92,5.0,11.0,90,0.00,,---,0.03,VWS V14.00,2013-11-27 22:16:00,
2013-11-27 17:21:00,24.0,21.5,30.17,ESE,115,4.0,11.0,90,0.00,,---,0.03,VWS V14.00,2013-11-27 22:21:00,
2013-11-27 17:26:00,23.8,21.0,30.18,SSE,152,0.0,14.0,89,0.00,,---,0.03,VWS V14.00,2013-11-27 22:26:00,
2013-11-27 17:31:00,23.7,20.9,30.18,SSE,150,7.0,14.0,89,0.00,,---,0.03,VWS V14.00,2013-11-27 22:31:00,
2013-11-27 17:36:00,23.6,20.8,30.18,SSE,159,0.0,14.0,89,0.00,,---,0.03,VWS V14.00,2013-11-27 22:36:00,
2013-11-27 17:41:00,23.6,20.8,30.18,NNE,25,0.0,5.0,89,0.00,,---,0.03,VWS V14.00,2013-11-27 22:41:00,
2013-11-27 17:46:00,23.6,20.8,30.19,South,188,4.0,5.0,89,0.00,,---,0.03,VWS V14.00,2013-11-27 22:46:00,
2013-11-27 17:51:00,23.6,20.8,30.19,SSE,159,0.0,6.0,89,0.00,,---,0.03,VWS V14.00,2013-11-27 22:51:00,
2013-11-27 17:56:00,23.5,20.5,30.20,East,83,4.0,7.0,88,0.00,,---,0.03,VWS V14.00,2013-11-27 22:56:00,
2013-11-27 18:01:00,23.5,20.5,30.20,SSE,150,4.0,7.0,88,0.00,,---,0.03,VWS V14.00,2013-11-27 23:01:00,
2013-11-27 18:06:00,23.5,20.5,30.20,ENE,78,3.0,7.0,88,0.00,,---,0.03,VWS V14.00,2013-11-27 23:06:00,
2013-11-27 18:11:00,23.4,20.1,30.21,ESE,119,0.0,11.0,87,0.00,,---,0.03,VWS V14.00,2013-11-27 23:11:00,
2013-11-27 18:16:00,23.4,20.4,30.21,ENE,65,0.0,11.0,88,0.00,,---,0.03,VWS V14.00,2013-11-27 23:16:00,
2013-11-27 18:21:00,23.3,20.3,30.22,South,189,0.0,11.0,88,0.00,,---,0.03,VWS V14.00,2013-11-27 23:21:00,
2013-11-27 18:26:00,23.3,20.3,30.22,South,172,2.0,11.0,88,0.00,,---,0.03,VWS V14.00,2013-11-27 23:26:00,
2013-11-27 18:31:00,23.3,20.0,30.23,SE,138,2.0,11.0,87,0.00,,---,0.03,VWS V14.00,2013-11-27 23:31:00,
2013-11-27 18:36:00,23.3,19.7,30.23,ESE,113,3.0,11.0,86,0.00,,---,0.03,VWS V14.00,2013-11-27 23:36:00,
2013-11-27 18:41:00,23.3,20.0,30.23,East,96,3.0,3.0,87,0.00,,---,0.03,VWS V14.00,2013-11-27 23:41:00,
2013-11-27 18:46:00,23.2,19.6,30.23,NNE,26,3.0,4.0,86,0.00,,---,0.03,VWS V14.00,2013-11-27 23:46:00,
2013-11-27 18:51:00,23.2,19.9,30.24,East,83,0.0,4.0,87,0.00,,---,0.03,VWS V14.00,2013-11-27 23:51:00,
2013-11-27 18:56:00,23.2,19.9,30.24,ESE,105,0.0,4.0,87,0.00,,---,0.03,VWS V14.00,2013-11-27 23:56:00,
2013-11-27 19:01:00,23.1,19.8,30.24,ESE,106,2.0,4.0,87,0.00,,---,0.03,VWS V14.00,2013-11-28 00:01:00,
2013-11-27 19:06:00,23.1,19.8,30.24,East,90,0.0,4.0,87,0.00,,---,0.03,VWS V14.00,2013-11-28 00:06:00,
2013-11-27 19:11:00,23.1,19.8,30.25,East,90,0.0,1.0,87,0.00,,---,0.03,VWS V14.00,2013-11-28 00:11:00,
2013-11-27 19:16:00,23.0,19.5,30.25,ESE,112,1.0,3.0,86,0.00,,---,0.03,VWS V14.00,2013-11-28 00:16:00,
2013-11-27 19:21:00,23.0,19.5,30.25,SSE,152,2.0,5.0,86,0.00,,---,0.03,VWS V14.00,2013-11-28 00:21:00,
2013-11-27 19:26:00,23.0,19.2,30.25,SSE,150,0.0,5.0,85,0.00,,---,0.03,VWS V14.00,2013-11-28 00:26:00,
2013-11-27 19:31:00,23.0,19.2,30.26,South,186,1.0,5.0,85,0.00,,---,0.03,VWS V14.00,2013-11-28 00:31:00,
2013-11-27 19:36:00,22.9,19.1,30.26,ESE,121,1.0,5.0,85,0.00,,---,0.03,VWS V14.00,2013-11-28 00:36:00,
2013-11-27 19:41:00,22.9,19.1,30.26,NE,53,0.0,3.0,85,0.00,,---,0.03,VWS V14.00,2013-11-28 00:41:00,
2013-11-27 19:46:00,22.9,19.1,30.26,SSE,148,0.0,3.0,85,0.00,,---,0.03,VWS V14.00,2013-11-28 00:46:00,
2013-11-27 19:51:00,22.9,18.8,30.26,South,183,0.0,5.0,84,0.00,,---,0.03,VWS V14.00,2013-11-28 00:51:00,
2013-11-27 19:56:00,22.9,18.8,30.25,SSE,150,0.0,5.0,84,0.00,,---,0.03,VWS V14.00,2013-11-28 00:56:00,
2013-11-27 20:01:00,22.8,18.7,30.25,SSE,150,0.0,5.0,84,0.00,,---,0.03,VWS V14.00,2013-11-28 01:01:00,
2013-11-27 20:06:00,22.9,19.1,30.26,South,176,2.0,5.0,85,0.00,,---,0.03,VWS V14.00,2013-11-28 01:06:00,
2013-11-27 20:11:00,22.8,19.0,30.26,East,101,0.0,3.0,85,0.00,,---,0.03,VWS V14.00,2013-11-28 01:11:00,
2013-11-27 20:16:00,22.8,19.0,30.26,SE,140,0.0,3.0,85,0.00,,---,0.03,VWS V14.00,2013-11-28 01:16:00,
2013-11-27 20:21:00,22.7,18.6,30.26,SSW,192,1.0,3.0,84,0.00,,---,0.03,VWS V14.00,2013-11-28 01:21:00,
2013-11-27 20:26:00,22.7,18.3,30.26,South,172,1.0,5.0,83,0.00,,---,0.03,VWS V14.00,2013-11-28 01:26:00,
2013-11-27 20:31:00,22.6,17.9,30.27,SSE,163,1.0,5.0,82,0.00,,---,0.03,VWS V14.00,2013-11-28 01:31:00,
2013-11-27 20:36:00,22.7,18.3,30.28,SSE,153,2.0,5.0,83,0.00,,---,0.03,VWS V14.00,2013-11-28 01:36:00,
2013-11-27 20:41:00,22.6,18.2,30.28,SSE,150,3.0,5.0,83,0.00,,---,0.03,VWS V14.00,2013-11-28 01:41:00,
2013-11-27 20:46:00,22.6,18.2,30.28,South,169,9.0,9.0,83,0.00,,---,0.03,VWS V14.00,2013-11-28 01:46:00,
2013-11-27 20:51:00,22.5,17.6,30.28,ESE,103,2.0,10.0,81,0.00,,---,0.03,VWS V14.00,2013-11-28 01:51:00,
2013-11-27 20:56:00,22.5,17.6,30.28,East,98,2.0,10.0,81,0.00,,---,0.03,VWS V14.00,2013-11-28 01:56:00,
2013-11-27 21:01:00,22.4,17.5,30.29,South,184,1.0,10.0,81,0.00,,---,0.03,VWS V14.00,2013-11-28 02:01:00,
2013-11-27 21:06:00,22.3,17.1,30.29,South,186,1.0,10.0,80,0.00,,---,0.03,VWS V14.00,2013-11-28 02:06:00,
2013-11-27 21:11:00,22.2,17.3,30.29,South,175,1.0,4.0,81,0.00,,---,0.03,VWS V14.00,2013-11-28 02:11:00,
2013-11-27 21:16:00,22.2,17.5,30.30,East,93,3.0,5.0,82,0.00,,---,0.03,VWS V14.00,2013-11-28 02:16:00,
2013-11-27 21:21:00,22.1,17.5,30.30,South,172,1.0,5.0,82,0.00,,---,0.03,VWS V14.00,2013-11-28 02:21:00,
2013-11-27 21:26:00,22.1,17.5,30.30,ESE,121,0.0,5.0,82,0.00,,---,0.03,VWS V14.00,2013-11-28 02:26:00,
2013-11-27 21:31:00,22.0,17.4,30.30,ESE,121,0.0,5.0,82,0.00,,---,0.03,VWS V14.00,2013-11-28 02:31:00,
2013-11-27 21:36:00,21.9,17.0,30.30,ESE,118,0.0,5.0,81,0.00,,---,0.03,VWS V14.00,2013-11-28 02:36:00,
2013-11-27 21:41:00,21.8,16.6,30.30,SSE,166,0.0,3.0,80,0.00,,---,0.03,VWS V14.00,2013-11-28 02:41:00,
2013-11-27 21:46:00,21.6,16.4,30.30,South,188,2.0,4.0,80,0.00,,---,0.03,VWS V14.00,2013-11-28 02:46:00,
2013-11-27 21:51:00,21.5,16.0,30.30,SSE,161,0.0,4.0,79,0.00,,---,0.03,VWS V14.00,2013-11-28 02:51:00,
2013-11-27 21:56:00,21.4,15.9,30.30,ESE,109,1.0,4.0,79,0.00,,---,0.03,VWS V14.00,2013-11-28 02:56:00,
2013-11-27 22:01:00,21.3,16.1,30.30,ESE,109,0.0,4.0,80,0.00,,---,0.03,VWS V14.00,2013-11-28 03:01:00,
2013-11-27 22:06:00,21.2,16.3,30.30,ESE,114,0.0,4.0,81,0.00,,---,0.03,VWS V14.00,2013-11-28 03:06:00,
2013-11-27 22:11:00,21.1,16.2,30.30,ESE,114,3.0,3.0,81,0.00,,---,0.03,VWS V14.00,2013-11-28 03:11:00,
2013-11-27 22:16:00,20.9,16.3,30.31,SSE,163,0.0,4.0,82,0.00,,---,0.03,VWS V14.00,2013-11-28 03:16:00,
2013-11-27 22:21:00,20.8,16.5,30.30,SSE,163,0.0,4.0,83,0.00,,---,0.03,VWS V14.00,2013-11-28 03:21:00,
2013-11-27 22:26:00,20.7,16.4,30.30,SSE,163,0.0,4.0,83,0.00,,---,0.03,VWS V14.00,2013-11-28 03:26:00,
2013-11-27 22:31:00,20.6,16.3,30.30,SSE,163,0.0,4.0,83,0.00,,---,0.03,VWS V14.00,2013-11-28 03:31:00,
2013-11-27 22:36:00,20.4,16.1,30.30,SSE,163,0.0,4.0,83,0.00,,---,0.03,VWS V14.00,2013-11-28 03:36:00,
2013-11-27 22:41:00,20.3,16.0,30.31,SSE,163,0.0,0.0,83,0.00,,---,0.03,VWS V14.00,2013-11-28 03:41:00,
2013-11-27 22:46:00,20.2,15.9,30.31,SSE,163,0.0,0.0,83,0.00,,---,0.03,VWS V14.00,2013-11-28 03:46:00,
2013-11-27 22:51:00,20.0,15.7,30.31,SSE,163,0.0,0.0,83,0.00,,---,0.03,VWS V14.00,2013-11-28 03:51:00,
2013-11-27 22:56:00,19.8,15.8,30.31,SSE,163,0.0,1.0,84,0.00,,---,0.03,VWS V14.00,2013-11-28 03:56:00,
2013-11-27 23:01:00,19.7,15.7,30.32,SE,136,1.0,3.0,84,0.00,,---,0.03,VWS V14.00,2013-11-28 04:01:00,
2013-11-27 23:06:00,19.7,15.9,30.32,SE,136,0.0,3.0,85,0.00,,---,0.03,VWS V14.00,2013-11-28 04:06:00,
2013-11-27 23:11:00,19.7,15.9,30.32,SE,136,0.0,0.0,85,0.00,,---,0.03,VWS V14.00,2013-11-28 04:11:00,
2013-11-27 23:16:00,19.5,15.7,30.32,South,169,3.0,3.0,85,0.00,,---,0.03,VWS V14.00,2013-11-28 04:16:00,
2013-11-27 23:21:00,19.4,15.9,30.32,SSW,192,2.0,5.0,86,0.00,,---,0.03,VWS V14.00,2013-11-28 04:21:00,
2013-11-27 23:26:00,19.4,15.6,30.32,SSW,192,0.0,5.0,85,0.00,,---,0.03,VWS V14.00,2013-11-28 04:26:00,
2013-11-27 23:31:00,19.4,15.6,30.32,South,188,3.0,5.0,85,0.00,,---,0.03,VWS V14.00,2013-11-28 04:31:00,
2013-11-27 23:36:00,19.7,15.7,30.31,SSW,200,5.0,5.0,84,0.00,,---,0.03,VWS V14.00,2013-11-28 04:36:00,
2013-11-27 23:41:00,19.7,15.4,30.31,SSE,155,0.0,2.0,83,0.00,,---,0.03,VWS V14.00,2013-11-28 04:41:00,
2013-11-27 23:45:00,19.7,15.7,30.31,SSE,158,2.0,4.0,84,0.00,,---,0.03,VWS V14.00,2013-11-28 04:45:00,
2013-11-27 23:50:00,19.7,15.7,30.32,SSE,161,0.0,4.0,84,0.00,,---,0.03,VWS V14.00,2013-11-28 04:50:00,
2013-11-27 23:55:00,19.7,15.7,30.32,SSE,148,4.0,4.0,84,0.00,,---,0.03,VWS V14.00,2013-11-28 04:55:00,